Time;durP1;ratioP1;P1;durP2;ratioP2;P2;SDS_P1;SDS_P2;PMS_P1;PMS_P2;Temp;Humidity;BMP_temperature;BMP_pressure;BME280_temperature;BME280_humidity;BME280_pressure;Samples;Min_cycle;Max_cycle;Signal;HPM_P1;HPM_P2
2022/11/19 00:02:23;;;;;;;7.72;4.38;;;;;;;8.10;90.96;99798.41;4934712;29;20059;-76
2022/11/19 00:05:27;;;;;;;6.07;4.28;;;;;;;8.00;90.44;99797.19;4934419;29;20553;-76
2022/11/19 00:08:30;;;;;;;11.02;4.80;;;;;;;8.03;89.57;99797.03;4934602;29;20122;-76
2022/11/19 00:14:56;;;;;;;4.03;2.47;;;;;;;7.71;89.41;99798.72;4934786;29;20107;-75
2022/11/19 00:18:00;;;;;;;6.47;2.55;;;;;;;7.83;89.13;99823.28;4934334;29;20098;-75
2022/11/19 00:21:12;;;;;;;3.95;2.35;;;;;;;7.70;89.92;99817.88;4934394;29;20042;-76
2022/11/19 00:24:15;;;;;;;5.93;2.38;;;;;;;7.89;89.00;99816.00;4934171;29;20074;-75
2022/11/19 00:27:18;;;;;;;3.03;1.90;;;;;;;7.72;87.68;99816.00;4934318;29;20051;-76
2022/11/19 00:30:22;;;;;;;;;;;;;;;7.61;88.44;99811.38;4934696;29;20045;-77
2022/11/19 00:33:26;;;;;;;3.22;1.73;;;;;;;7.64;88.17;99815.56;4934153;29;20033;-76
2022/11/19 00:36:29;;;;;;;2.42;1.20;;;;;;;7.49;87.69;99811.16;4934391;29;20063;-76
2022/11/19 00:39:33;;;;;;;3.60;1.98;;;;;;;7.52;87.77;99814.44;4922467;29;20102;-75
2022/11/19 00:42:38;;;;;;;3.67;1.77;;;;;;;7.49;87.29;99814.59;4934365;29;20055;-75
2022/11/19 00:45:43;;;;;;;3.15;1.52;;;;;;;7.19;85.59;99812.63;4933930;29;20047;-75
2022/11/19 00:48:48;;;;;;;3.30;1.67;;;;;;;7.07;85.11;99818.41;4934159;29;20042;-75
2022/11/19 00:51:52;;;;;;;3.13;1.92;;;;;;;6.96;84.98;99828.50;4934601;29;20054;-76
2022/11/19 00:54:55;;;;;;;5.68;1.80;;;;;;;6.86;84.73;99832.44;4937979;29;20035;-75
2022/11/19 00:58:03;;;;;;;3.47;2.13;;;;;;;6.89;84.66;99840.09;4937890;29;20524;-74
2022/11/19 01:01:31;;;;;;;3.08;1.50;;;;;;;6.84;84.01;99839.50;4938046;29;20054;-75
2022/11/19 01:04:34;;;;;;;2.67;1.48;;;;;;;6.71;83.86;99841.84;4937568;29;20102;-76
2022/11/19 01:07:44;;;;;;;;;;;;;;;6.68;84.19;99844.56;4938051;29;20078;-76
2022/11/19 01:10:47;;;;;;;3.63;2.35;;;;;;;6.55;84.98;99853.88;4937402;29;19922;-75
2022/11/19 01:13:51;;;;;;;2.75;1.60;;;;;;;6.50;84.61;99856.66;4936067;29;20051;-75
2022/11/19 01:16:58;;;;;;;4.07;2.10;;;;;;;6.48;83.75;99856.75;4937713;29;20054;-76
2022/11/19 01:20:01;;;;;;;;;;;;;;;6.57;84.51;99860.66;4937776;29;20090;-75
2022/11/19 01:23:05;;;;;;;3.50;2.45;;;;;;;6.54;83.52;99866.00;4937701;29;19921;-76
2022/11/19 01:26:11;;;;;;;3.17;2.28;;;;;;;6.34;83.07;99873.84;4937394;29;20047;-75
2022/11/19 01:29:14;;;;;;;6.10;3.58;;;;;;;6.28;82.73;99870.59;4937525;29;20050;-75
2022/11/19 01:32:17;;;;;;;3.42;2.60;;;;;;;6.17;83.96;99870.25;4937108;29;20508;-75
2022/11/19 01:35:21;;;;;;;4.85;3.25;;;;;;;6.08;83.88;99873.25;4937142;29;20050;-75
2022/11/19 01:38:25;;;;;;;6.90;3.38;;;;;;;6.21;83.93;99879.59;4937312;29;20050;-75
2022/11/19 01:41:32;;;;;;;4.93;3.40;;;;;;;6.10;83.31;99875.81;4936764;29;20155;-76
2022/11/19 01:44:58;;;;;;;4.30;2.97;;;;;;;6.05;84.08;99874.22;4936532;29;20470;-76
2022/11/19 01:48:25;;;;;;;4.68;3.60;;;;;;;5.91;83.69;99873.13;4936896;29;20047;-76
2022/11/19 01:51:31;;;;;;;4.65;3.45;;;;;;;5.95;84.04;99879.91;4936930;29;20053;-76
2022/11/19 01:54:43;;;;;;;6.65;3.90;;;;;;;5.98;82.61;99892.75;4936682;29;20108;-76
2022/11/19 01:57:52;;;;;;;5.45;3.55;;;;;;;6.05;83.25;99883.78;4936628;29;20576;-76
2022/11/19 02:00:58;;;;;;;5.78;4.45;;;;;;;6.11;83.18;99893.06;4924988;29;20417;-76
2022/11/19 02:04:04;;;;;;;6.18;4.57;;;;;;;6.02;83.48;99896.88;4936220;29;20091;-75
2022/11/19 02:07:10;;;;;;;5.20;3.78;;;;;;;5.83;83.96;99897.63;4936562;29;20117;-76
2022/11/19 02:10:14;;;;;;;6.25;3.85;;;;;;;5.99;81.90;99905.63;4936563;29;20131;-76
2022/11/19 02:13:30;;;;;;;5.68;4.10;;;;;;;5.77;81.24;99910.88;4936241;29;20572;-74
2022/11/19 02:16:38;;;;;;;5.75;4.82;;;;;;;5.56;81.51;99911.78;4936540;29;20099;-75
2022/11/19 02:20:09;;;;;;;8.23;5.20;;;;;;;5.71;79.71;99910.28;4936255;29;20062;-75
2022/11/19 02:23:44;;;;;;;7.32;5.20;;;;;;;5.39;80.10;99909.03;4936250;29;20047;-75
2022/11/19 02:27:16;;;;;;;7.07;6.10;;;;;;;5.41;80.61;99912.41;4936127;29;20126;-75
2022/11/19 02:30:22;;;;;;;5.93;5.32;;;;;;;5.47;79.22;99915.59;4936349;29;20094;-75
2022/11/19 02:33:40;;;;;;;7.13;6.13;;;;;;;5.41;80.07;99912.41;4936166;29;20042;-75
2022/11/19 02:37:15;;;;;;;7.15;6.45;;;;;;;5.19;81.25;99921.03;4935934;29;20087;-75
2022/11/19 02:40:26;;;;;;;7.05;6.35;;;;;;;5.12;80.73;99927.38;4935781;29;20601;-74
2022/11/19 02:43:38;;;;;;;8.80;7.80;;;;;;;4.89;81.34;99929.13;4935736;29;20090;-74
2022/11/19 02:46:44;;;;;;;8.68;6.88;;;;;;;5.19;80.35;99926.22;4935735;29;20047;-75
2022/11/19 02:49:50;;;;;;;8.05;7.25;;;;;;;5.40;80.67;99926.28;4935607;29;20050;-75
2022/11/19 02:52:53;;;;;;;11.23;7.05;;;;;;;5.28;80.84;99928.47;4935657;29;20051;-75
2022/11/19 02:56:16;;;;;;;8.65;7.85;;;;;;;5.21;80.90;99934.78;4935423;29;20038;-76
2022/11/19 03:06:31;;;;;;;9.43;8.40;;;;;;;5.35;82.18;99924.72;4935387;29;20520;-76
2022/11/19 03:09:41;;;;;;;8.68;7.35;;;;;;;5.44;79.96;99927.84;4933352;29;20086;-75
2022/11/19 03:16:40;;;;;;;10.45;7.90;;;;;;;5.29;81.15;99940.50;4933479;29;20417;-76
2022/11/19 03:16:41;;;;;;;9.13;8.20;;;;;;;5.26;79.82;99940.63;4933960;29;20126;-75
2022/11/19 03:19:49;;;;;;;8.30;7.45;;;;;;;5.23;81.28;99938.19;4935155;29;20075;-75
2022/11/19 03:22:55;;;;;;;10.30;8.38;;;;;;;5.15;80.89;99941.97;4935094;29;20523;-76
2022/11/19 03:26:12;;;;;;;8.88;7.97;;;;;;;5.17;81.64;99945.31;4934789;29;20528;-75
2022/11/19 03:29:17;;;;;;;9.40;8.43;;;;;;;4.98;81.70;99942.59;4934869;29;20094;-75
2022/11/19 03:32:30;;;;;;;10.57;9.55;;;;;;;4.94;81.40;99935.88;4934959;29;20565;-76
2022/11/19 03:35:44;;;;;;;10.82;9.68;;;;;;;4.93;81.53;99931.59;4935148;29;20083;-75
2022/11/19 03:38:53;;;;;;;10.60;9.50;;;;;;;4.82;81.42;99939.78;4934870;29;20445;-75
2022/11/19 03:42:04;;;;;;;10.82;9.73;;;;;;;4.86;81.52;99949.13;4934761;29;20050;-76
2022/11/19 03:45:17;;;;;;;10.43;9.35;;;;;;;4.62;83.15;99950.88;4934487;29;20054;-76
2022/11/19 03:48:22;;;;;;;12.35;10.40;;;;;;;4.77;82.37;99957.22;4934777;29;20478;-76
2022/11/19 03:51:37;;;;;;;11.18;10.07;;;;;;;4.88;80.80;99961.13;4934879;29;20046;-76
2022/11/19 03:54:41;;;;;;;11.85;10.65;;;;;;;4.70;80.22;99960.97;4934611;29;20138;-76
2022/11/19 03:57:45;;;;;;;11.45;10.35;;;;;;;4.78;80.68;99969.28;4934654;29;20095;-76
2022/11/19 04:00:48;;;;;;;10.70;9.65;;;;;;;4.71;80.04;99963.47;4934560;29;20099;-76
2022/11/19 04:07:24;;;;;;;12.30;11.10;;;;;;;4.60;80.41;99957.88;4897942;29;20050;-76
2022/11/19 04:10:27;;;;;;;11.48;10.20;;;;;;;4.28;81.20;99959.88;4934615;29;20054;-76
2022/11/19 04:13:30;;;;;;;;;;;;;;;4.67;80.35;99977.44;4934752;29;20054;-77
2022/11/19 04:16:33;;;;;;;10.88;9.77;;;;;;;4.59;80.79;99984.63;4934487;29;20018;-76
2022/11/19 04:19:37;;;;;;;;;;;;;;;4.49;78.81;99971.19;4934767;29;20075;-76
2022/11/19 04:22:41;;;;;;;12.27;9.93;;;;;;;4.50;78.56;99979.78;4934452;29;20030;-76
2022/11/19 04:25:46;;;;;;;10.65;9.52;;;;;;;4.55;79.84;99972.72;4934199;29;20051;-76
2022/11/19 04:28:49;;;;;;;10.73;9.35;;;;;;;4.35;80.61;99987.22;4938525;29;20118;-76
2022/11/19 04:31:53;;;;;;;;;;;;;;;4.38;80.30;99981.94;4938547;29;20469;-76
2022/11/19 04:34:56;;;;;;;10.23;9.13;;;;;;;4.27;80.02;99981.44;4938199;29;20055;-76
2022/11/19 04:37:59;;;;;;;11.98;10.77;;;;;;;4.29;80.34;99986.59;4937978;29;20414;-76
2022/11/19 04:41:02;;;;;;;10.02;9.02;;;;;;;4.45;79.83;99992.06;4937956;29;20047;-76
2022/11/19 04:44:08;;;;;;;11.25;10.05;;;;;;;4.63;80.04;99996.59;4937614;29;20059;-76
2022/11/19 04:47:12;;;;;;;10.85;9.48;;;;;;;4.30;80.47;99991.69;4938094;29;20055;-77
2022/11/19 04:50:16;;;;;;;13.07;9.85;;;;;;;4.37;80.58;99995.78;4925844;29;20058;-77
2022/11/19 04:53:29;;;;;;;11.50;10.38;;;;;;;4.60;80.43;100007.06;4939902;29;20133;-76
2022/11/19 04:56:32;;;;;;;10.75;9.55;;;;;;;4.58;80.06;100001.94;4949825;29;20413;-76
2022/11/19 04:59:35;;;;;;;12.18;11.02;;;;;;;4.71;79.94;100002.31;4954143;29;20106;-76
2022/11/19 05:02:39;;;;;;;11.80;10.60;;;;;;;4.47;79.99;100006.66;4954632;29;20097;-76
2022/11/19 05:05:43;;;;;;;11.80;10.60;;;;;;;4.31;80.65;100006.34;4951087;29;20448;-76
2022/11/19 05:08:45;;;;;;;12.00;10.80;;;;;;;4.40;79.85;100007.75;4955320;29;20054;-76
2022/11/19 05:11:49;;;;;;;12.13;10.93;;;;;;;4.38;79.93;99999.22;4948002;29;20173;-75
2022/11/19 05:14:52;;;;;;;10.77;9.75;;;;;;;4.26;80.52;100005.66;4937045;29;20106;-75
2022/11/19 05:17:55;;;;;;;;;;;;;;;4.42;79.90;100006.81;4937445;29;20191;-76
2022/11/19 05:21:02;;;;;;;10.97;9.87;;;;;;;4.17;78.55;100018.91;4936819;29;19920;-76
2022/11/19 05:24:06;;;;;;;12.52;11.23;;;;;;;4.17;80.96;100018.91;4936824;29;20749;-76
2022/11/19 05:27:10;;;;;;;13.30;11.95;;;;;;;4.25;80.62;100016.91;4937041;29;20082;-76
2022/11/19 05:30:14;;;;;;;11.75;10.55;;;;;;;4.23;79.19;100017.84;4936796;29;20079;-75
2022/11/19 05:33:20;;;;;;;12.68;11.25;;;;;;;4.36;79.89;100022.53;4936894;29;20066;-75
2022/11/19 05:36:24;;;;;;;12.88;11.60;;;;;;;4.21;79.44;100020.47;4936576;29;20063;-75
2022/11/19 05:39:27;;;;;;;11.85;10.68;;;;;;;4.06;80.42;100031.38;4935175;29;20177;-75
2022/11/19 05:42:30;;;;;;;13.07;11.63;;;;;;;3.95;81.09;100026.53;4594511;29;10000542;-76
2022/11/19 05:45:34;;;;;;;;;;;;;;;4.35;79.15;100030.38;4936351;29;20055;-76
2022/11/19 05:48:37;;;;;;;14.10;11.68;;;;;;;4.17;80.44;100031.84;4945663;29;19968;-75
2022/11/19 05:51:41;;;;;;;10.82;9.73;;;;;;;4.28;80.23;100037.50;4955603;29;20409;-75
2022/11/19 05:54:50;;;;;;;11.65;10.55;;;;;;;4.15;80.13;100038.84;4955546;29;20046;-75
2022/11/19 05:57:53;;;;;;;11.20;10.10;;;;;;;4.04;79.91;100038.31;4955465;29;20042;-75
2022/11/19 06:01:08;;;;;;;11.77;9.98;;;;;;;3.96;81.40;100031.66;4955462;29;20073;-76
2022/11/19 06:04:42;;;;;;;11.40;10.30;;;;;;;4.27;79.36;100040.97;4955262;29;20094;-74
2022/11/19 06:12:46;;;;;;;11.60;10.40;;;;;;;4.00;79.92;100041.91;4942113;29;20043;-75
2022/11/19 06:15:50;;;;;;;;;;;;;;;3.87;80.69;100047.50;4936916;29;20336;-75
2022/11/19 06:18:53;;;;;;;12.27;10.93;;;;;;;3.95;81.94;100037.72;4929975;29;19938;-75
2022/11/19 06:21:57;;;;;;;12.40;11.10;;;;;;;3.81;81.25;100042.50;4935474;29;20101;-75
2022/11/19 06:25:01;;;;;;;11.98;10.63;;;;;;;3.91;80.64;100033.56;4950928;29;20050;-75
2022/11/19 06:32:42;;;;;;;12.50;11.10;;;;;;;4.02;80.05;100065.97;4930887;29;20043;-76
2022/11/19 06:35:47;;;;;;;;;;;;;;;3.79;80.60;100070.16;4937443;29;20041;-76
2022/11/19 06:38:51;;;;;;;12.55;11.25;;;;;;;3.76;80.03;100072.84;4948958;29;19921;-76
2022/11/19 06:42:34;;;;;;;13.32;11.32;;;;;;;3.72;81.21;100081.59;4931656;29;20050;-75
2022/11/19 06:45:17;;;;;;;13.37;11.97;;;;;;;3.75;80.95;100076.31;4930662;29;20194;-74
2022/11/19 06:48:21;;;;;;;;;;;;;;;4.01;79.51;100080.66;4932873;29;20290;-74
2022/11/19 06:51:27;;;;;;;11.45;10.30;;;;;;;3.83;79.77;100082.13;4930134;29;19937;-76
2022/11/19 06:54:31;;;;;;;12.13;10.82;;;;;;;3.73;79.85;100091.03;4934761;29;20476;-76
2022/11/19 06:57:35;;;;;;;11.35;9.77;;;;;;;3.80;80.59;100087.38;4942005;29;20053;-75
2022/11/19 07:00:40;;;;;;;11.88;10.35;;;;;;;3.69;80.66;100089.44;4938968;29;20472;-76
2022/11/19 07:03:43;;;;;;;12.15;10.88;;;;;;;3.59;80.66;100095.78;4949131;29;20131;-75
2022/11/19 07:06:47;;;;;;;;;;;;;;;3.48;80.53;100096.97;4948563;29;20050;-74
2022/11/19 07:09:51;;;;;;;11.68;9.45;;;;;;;3.37;81.14;100101.59;4947619;29;19941;-76
2022/11/19 07:12:54;;;;;;;14.52;11.38;;;;;;;3.54;81.17;100100.25;4946446;29;20519;-76
2022/11/19 07:16:01;;;;;;;;;;;;;;;3.42;80.84;100104.06;4944565;29;20102;-76
2022/11/19 07:19:06;;;;;;;10.43;9.40;;;;;;;3.38;81.23;100100.72;4945757;29;19948;-75
2022/11/19 07:22:10;;;;;;;11.82;10.63;;;;;;;3.36;81.53;100107.66;4945559;29;20054;-75
2022/11/19 07:25:13;;;;;;;12.60;11.30;;;;;;;3.28;82.08;100113.94;4947740;29;20531;-75
2022/11/19 07:28:16;;;;;;;;;;;;;;;3.16;81.68;100107.38;4949268;29;20046;-76
2022/11/19 07:31:23;;;;;;;11.77;10.15;;;;;;;3.64;80.59;100107.69;4949277;29;19985;-75
2022/11/19 07:34:26;;;;;;;11.73;10.23;;;;;;;3.59;79.37;100114.72;4948685;29;20461;-76
2022/11/19 07:37:31;;;;;;;10.60;9.45;;;;;;;3.46;80.49;100119.41;4946623;29;20552;-75
2022/11/19 07:40:34;;;;;;;10.68;9.57;;;;;;;3.81;78.95;100120.09;4945095;29;20118;-75
2022/11/19 07:43:38;;;;;;;10.48;9.40;;;;;;;3.35;80.32;100126.66;4944493;29;20054;-76
2022/11/19 07:46:41;;;;;;;;;;;;;;;3.46;80.19;100140.09;4946469;29;20045;-77
2022/11/19 07:49:45;;;;;;;9.75;8.60;;;;;;;3.31;80.73;100147.44;4950709;29;19940;-75
2022/11/19 07:52:50;;;;;;;10.60;9.25;;;;;;;3.25;80.45;100145.88;4951309;29;20077;-75
2022/11/19 07:55:53;;;;;;;9.55;8.52;;;;;;;3.42;80.24;100146.25;4949657;29;20046;-75
2022/11/19 07:59:01;;;;;;;;;;;;;;;3.25;80.50;100151.03;4945148;29;20053;-76
2022/11/19 08:02:05;;;;;;;11.70;10.05;;;;;;;3.13;80.58;100146.25;4946497;29;20421;-76
2022/11/19 08:05:09;;;;;;;10.35;8.82;;;;;;;3.59;79.63;100150.09;4948053;29;20227;-75
2022/11/19 08:08:12;;;;;;;12.73;10.63;;;;;;;3.63;79.53;100147.34;4947082;29;20100;-76
2022/11/19 08:11:19;;;;;;;12.60;11.07;;;;;;;3.54;79.41;100155.38;4950331;29;20046;-73
2022/11/19 08:14:25;;;;;;;11.45;10.15;;;;;;;3.39;79.45;100146.34;4940790;29;20417;-75
2022/11/19 08:21:06;;;;;;;11.70;10.23;;;;;;;3.50;79.07;100152.03;4941379;29;20062;-76
2022/11/19 08:24:18;;;;;;;14.90;10.40;;;;;;;3.75;78.98;100159.06;4929505;29;20053;-76
2022/11/19 08:27:24;;;;;;;11.80;10.30;;;;;;;3.42;79.69;100161.75;4929959;29;20590;-76
2022/11/19 08:30:29;;;;;;;11.63;10.43;;;;;;;3.44;80.31;100157.38;4917832;29;20098;-76
2022/11/19 08:33:33;;;;;;;11.05;9.52;;;;;;;3.40;80.47;100166.13;4927801;29;20094;-76
2022/11/19 08:36:37;;;;;;;12.35;10.88;;;;;;;3.49;80.09;100165.00;4929666;29;20169;-77
2022/11/19 08:39:40;;;;;;;11.77;10.52;;;;;;;3.54;80.42;100172.63;4927336;29;20054;-76
2022/11/19 08:42:58;;;;;;;13.55;12.07;;;;;;;3.66;79.65;100172.28;4928326;29;20051;-75
2022/11/19 08:46:03;;;;;;;11.98;10.77;;;;;;;3.40;80.25;100176.47;4927167;29;20054;-76
2022/11/19 08:49:10;;;;;;;12.88;11.38;;;;;;;3.50;80.08;100182.22;4939299;29;20055;-75
2022/11/19 08:52:14;;;;;;;19.50;12.02;;;;;;;3.47;80.31;100183.13;4947546;29;20070;-75
2022/11/19 08:55:21;;;;;;;15.02;12.63;;;;;;;3.47;80.64;100177.13;4949134;29;20038;-74
2022/11/19 08:58:24;;;;;;;13.00;11.18;;;;;;;3.53;80.27;100178.69;4921635;29;20560;-76
2022/11/19 09:01:31;;;;;;;13.73;11.32;;;;;;;3.55;80.18;100174.34;4929835;29;20063;-74
2022/11/19 09:04:37;;;;;;;14.93;13.20;;;;;;;3.94;78.80;100172.28;4929416;29;20086;-75
2022/11/19 09:07:40;;;;;;;14.23;12.73;;;;;;;3.76;79.89;100178.00;4929026;29;20572;-75
2022/11/19 09:10:47;;;;;;;15.35;13.27;;;;;;;3.81;79.86;100186.50;4929863;29;20540;-76
2022/11/19 09:13:52;;;;;;;15.15;12.85;;;;;;;3.67;79.09;100192.06;4930738;29;20139;-76
2022/11/19 09:17:00;;;;;;;15.88;13.30;;;;;;;3.72;79.62;100195.38;4931119;29;20679;-76
2022/11/19 09:20:05;;;;;;;14.18;12.57;;;;;;;3.79;78.22;100193.44;4931332;29;20103;-74
2022/11/19 09:23:10;;;;;;;14.88;12.52;;;;;;;3.45;80.01;100203.03;4931169;29;20102;-75
2022/11/19 09:26:16;;;;;;;17.27;14.20;;;;;;;3.72;79.91;100214.31;4933096;29;20549;-76
2022/11/19 09:29:19;;;;;;;15.25;12.93;;;;;;;3.54;80.87;100208.81;4932985;29;20461;-75
2022/11/19 09:32:23;;;;;;;19.15;14.95;;;;;;;3.52;79.89;100215.78;4946821;28;20070;-75
2022/11/19 09:35:28;;;;;;;16.33;13.60;;;;;;;3.46;80.48;100207.31;4951521;29;20043;-75
2022/11/19 09:38:33;;;;;;;17.23;13.57;;;;;;;3.59;79.42;100207.81;4951389;29;20046;-75
2022/11/19 09:41:42;;;;;;;17.98;14.27;;;;;;;3.52;79.86;100218.38;4950943;29;20080;-76
2022/11/19 09:44:57;;;;;;;17.73;14.20;;;;;;;3.57;79.83;100219.91;4951102;29;20081;-76
2022/11/19 09:48:41;;;;;;;15.80;14.10;;;;;;;3.83;78.12;100215.72;4931844;29;20386;-76
2022/11/19 09:51:53;;;;;;;15.20;13.38;;;;;;;3.43;79.90;100219.47;4932368;29;20525;-76
2022/11/19 09:55:01;;;;;;;15.80;13.38;;;;;;;3.64;79.00;100225.78;4945719;29;20094;-76
2022/11/19 09:58:10;;;;;;;15.77;13.65;;;;;;;3.65;79.13;100233.47;4951181;29;20128;-76
2022/11/19 10:01:24;;;;;;;17.23;15.18;;;;;;;3.64;79.21;100236.13;4950831;29;20194;-76
2022/11/19 10:04:32;;;;;;;30.45;24.92;;;;;;;3.90;78.06;100237.94;4932109;29;20406;-76
2022/11/19 10:07:54;;;;;;;18.27;15.88;;;;;;;3.79;78.88;100235.66;4920448;29;20098;-76
2022/11/19 10:11:19;;;;;;;15.40;13.75;;;;;;;3.75;79.97;100248.75;4931015;29;20511;-75
2022/11/19 10:14:46;;;;;;;16.08;14.20;;;;;;;3.44;79.76;100249.59;4939095;29;20058;-76
2022/11/19 10:18:27;;;;;;;17.13;13.52;;;;;;;3.52;79.96;100242.47;4949973;29;20469;-77
2022/11/19 10:21:44;;;;;;;15.55;13.27;;;;;;;3.54;80.41;100239.84;4949208;29;20117;-75
2022/11/19 10:25:08;;;;;;;15.77;13.35;;;;;;;3.54;80.59;100245.84;4948680;28;20572;-74
2022/11/19 10:28:25;;;;;;;16.00;13.50;;;;;;;3.59;80.37;100237.97;4945406;29;20055;-74
2022/11/19 10:31:36;;;;;;;14.60;12.75;;;;;;;3.69;80.00;100239.41;4931383;29;20099;-74
2022/11/19 10:34:49;;;;;;;15.85;13.38;;;;;;;3.78;79.62;100236.56;4931260;29;20046;-73
2022/11/19 10:38:06;;;;;;;13.70;11.90;;;;;;;3.78;79.02;100241.72;4930289;29;20153;-75
2022/11/19 10:41:16;;;;;;;15.23;12.90;;;;;;;3.65;79.69;100248.16;4931157;29;20054;-76
2022/11/19 10:44:39;;;;;;;14.60;12.90;;;;;;;3.54;79.80;100245.84;4929991;29;20054;-75
2022/11/19 10:48:18;;;;;;;15.48;13.00;;;;;;;3.52;79.72;100232.13;4929909;29;20647;-74
2022/11/19 10:51:35;;;;;;;14.98;12.93;;;;;;;3.82;79.73;100240.75;4919060;29;20099;-73
2022/11/19 10:54:39;;;;;;;15.82;12.88;;;;;;;3.90;78.78;100228.44;4931852;29;20097;-74
2022/11/19 10:57:45;;;;;;;15.88;13.43;;;;;;;3.94;78.49;100235.22;4934787;29;20067;-75
2022/11/19 11:00:53;;;;;;;15.73;13.15;;;;;;;4.00;78.98;100233.34;4935351;29;20050;-75
2022/11/19 11:04:16;;;;;;;14.93;13.32;;;;;;;4.25;78.14;100230.88;4935511;29;20046;-74
2022/11/19 11:07:22;;;;;;;16.70;14.65;;;;;;;4.34;76.68;100234.03;4933744;29;20605;-75
2022/11/19 11:11:07;;;;;;;16.33;14.63;;;;;;;4.02;77.19;100221.19;4933536;29;20110;-74
2022/11/19 11:17:37;;;;;;;15.98;13.95;;;;;;;4.07;77.53;100233.13;4933854;29;20110;-75
2022/11/19 11:20:48;;;;;;;15.75;12.85;;;;;;;4.22;76.95;100229.22;4936629;29;20130;-74
2022/11/19 11:23:54;;;;;;;14.73;11.77;;;;;;;4.01;76.89;100232.44;4933509;29;20536;-76
2022/11/19 11:27:32;;;;;;;14.00;12.50;;;;;;;3.95;77.00;100223.97;4930821;29;20516;-76
2022/11/19 11:30:36;;;;;;;14.88;13.07;;;;;;;4.03;77.08;100233.25;4915387;29;20102;-75
2022/11/19 11:33:54;;;;;;;14.57;13.02;;;;;;;3.88;77.79;100232.81;4940807;29;20717;-74
2022/11/19 11:37:00;;;;;;;13.68;12.18;;;;;;;3.83;77.25;100239.88;4949951;28;20034;-78
2022/11/19 11:40:22;;;;;;;16.17;13.55;;;;;;;4.16;76.35;100219.91;4937540;29;20073;-77
2022/11/19 11:43:27;;;;;;;17.98;15.95;;;;;;;4.18;76.38;100225.88;4938784;29;20631;-79
2022/11/19 11:46:57;;;;;;;20.15;15.05;;;;;;;3.95;78.27;100229.13;4943294;29;20485;-78
2022/11/19 11:50:18;;;;;;;14.20;12.70;;;;;;;3.83;77.75;100234.69;4949637;29;20174;-78
2022/11/19 11:53:31;;;;;;;15.88;14.27;;;;;;;3.79;79.02;100238.25;4948570;29;20050;-78
2022/11/19 11:56:36;;;;;;;14.77;13.18;;;;;;;3.81;77.94;100226.13;4936374;29;20106;-78
2022/11/19 11:59:40;;;;;;;15.15;13.52;;;;;;;4.07;77.48;100227.94;4930445;29;20050;-79
2022/11/19 12:02:59;;;;;;;14.60;13.00;;;;;;;4.12;77.88;100233.00;4930357;29;20053;-79
2022/11/19 12:06:07;;;;;;;17.90;16.00;;;;;;;4.12;77.36;100227.81;4929353;29;20046;-78
2022/11/19 12:09:37;;;;;;;15.25;13.55;;;;;;;3.83;78.53;100234.69;4940490;29;20560;-79
2022/11/19 12:12:51;;;;;;;44.55;35.90;;;;;;;4.12;77.15;100226.06;4947435;29;20073;-79
2022/11/19 12:16:05;;;;;;;15.77;14.18;;;;;;;3.83;77.64;100236.41;4929889;29;20046;-79
2022/11/19 12:19:21;;;;;;;14.88;13.10;;;;;;;4.09;77.14;100227.91;4919424;29;20113;-79
2022/11/19 12:22:57;;;;;;;19.20;14.57;;;;;;;4.17;77.91;100231.09;4939923;29;20725;-79
2022/11/19 12:30:14;;;;;;;17.48;13.25;;;;;;;4.35;77.04;100227.09;4929635;29;20690;-80
2022/11/19 12:33:31;;;;;;;16.90;15.18;;;;;;;4.42;76.43;100228.59;4943959;28;20551;-80
2022/11/19 12:36:56;;;;;;;15.45;13.82;;;;;;;4.11;76.62;100226.09;4931491;29;20097;-79
2022/11/19 12:40:19;;;;;;;17.63;12.73;;;;;;;4.28;76.01;100223.00;4935652;29;20099;-79
2022/11/19 12:43:54;;;;;;;13.95;12.30;;;;;;;3.81;77.72;100228.72;4944801;29;20768;-79
2022/11/19 12:47:16;;;;;;;17.60;15.02;;;;;;;3.96;78.51;100212.75;4932332;28;20503;-79
2022/11/19 12:50:49;;;;;;;15.98;14.27;;;;;;;3.76;79.36;100225.41;4924359;29;20101;-79
2022/11/19 12:54:35;;;;;;;16.33;13.38;;;;;;;3.78;78.76;100233.13;4944047;29;20041;-79
2022/11/19 12:57:55;;;;;;;14.80;12.68;;;;;;;3.67;79.29;100231.72;4940783;29;20042;-79
2022/11/19 13:01:12;;;;;;;15.88;13.80;;;;;;;4.00;77.60;100229.03;4944580;29;20058;-79
2022/11/19 13:04:34;;;;;;;15.38;13.38;;;;;;;3.54;78.59;100229.50;4946067;29;20097;-77
2022/11/19 13:07:44;;;;;;;14.85;13.15;;;;;;;3.50;80.33;100234.75;4947306;29;20081;-77
2022/11/19 13:10:51;;;;;;;14.75;13.25;;;;;;;3.66;80.80;100234.31;4947676;29;20062;-77
2022/11/19 13:14:02;;;;;;;15.50;13.82;;;;;;;3.62;80.14;100235.31;4953026;29;20414;-77
2022/11/19 13:17:25;;;;;;;15.07;13.43;;;;;;;3.67;79.23;100233.41;4944274;29;20050;-77
2022/11/19 13:21:02;;;;;;;14.50;13.00;;;;;;;3.61;78.72;100225.88;4949150;29;20118;-76
2022/11/19 13:24:35;;;;;;;14.50;13.00;;;;;;;3.68;79.55;100217.03;4949086;29;20119;-77
2022/11/19 13:27:42;;;;;;;15.27;13.23;;;;;;;3.63;79.73;100224.06;4937876;29;20050;-77
2022/11/19 13:30:49;;;;;;;15.07;13.45;;;;;;;3.54;79.57;100229.50;4956245;29;20043;-77
2022/11/19 13:34:02;;;;;;;15.23;13.63;;;;;;;3.53;79.43;100228.66;4956133;29;20042;-77
2022/11/19 13:37:16;;;;;;;;;;;;;;;3.59;79.65;100230.22;4956786;29;20046;-77
2022/11/19 13:40:22;;;;;;;13.57;11.80;;;;;;;3.52;78.99;100232.13;4956197;29;20394;-77
2022/11/19 13:46:58;;;;;;;14.68;12.23;;;;;;;3.53;79.42;100235.56;4955990;29;20106;-77
2022/11/19 13:50:33;;;;;;;14.98;12.40;;;;;;;3.48;80.00;100248.63;4947915;29;20078;-77
2022/11/19 13:53:43;;;;;;;15.00;12.55;;;;;;;3.62;79.32;100248.25;4946536;29;20138;-77
2022/11/19 13:56:56;;;;;;;13.93;12.18;;;;;;;3.65;79.34;100243.81;4946934;29;20425;-76
2022/11/19 14:00:26;;;;;;;14.02;12.52;;;;;;;3.57;79.89;100250.09;4939009;29;20437;-77
2022/11/19 14:03:59;;;;;;;15.48;12.95;;;;;;;3.36;80.38;100251.53;4936757;29;20106;-77
2022/11/19 14:07:21;;;;;;;15.43;11.23;;;;;;;3.42;78.74;100251.38;4936803;29;20066;-77
2022/11/19 14:10:41;;;;;;;15.07;12.65;;;;;;;3.55;78.45;100257.06;4936493;29;20086;-77
2022/11/19 14:14:02;;;;;;;17.10;14.68;;;;;;;3.89;77.54;100254.34;4936522;29;20050;-77
2022/11/19 14:28:39;;;;;;;12.05;10.85;;;;;;;3.49;78.84;100264.09;4936412;29;20594;-75
2022/11/19 14:32:05;;;;;;;12.32;10.65;;;;;;;3.38;78.44;100262.66;4936454;29;20039;-74
2022/11/19 14:35:29;;;;;;;14.40;12.82;;;;;;;3.72;77.24;100260.00;4936249;29;20039;-78
2022/11/19 14:38:36;;;;;;;12.75;11.32;;;;;;;3.56;77.88;100259.59;4936340;29;20050;-76
2022/11/19 14:41:43;;;;;;;14.15;11.43;;;;;;;3.44;78.26;100257.34;4936272;29;20054;-81
2022/11/19 14:45:02;;;;;;;15.65;12.27;;;;;;;3.36;78.75;100262.72;4934544;29;20119;-78
2022/11/19 14:48:07;;;;;;;13.02;11.00;;;;;;;3.23;80.07;100276.88;4936303;29;20175;-76
2022/11/19 14:51:25;;;;;;;13.80;11.88;;;;;;;3.23;79.70;100269.13;4936145;29;20481;-74
2022/11/19 14:54:42;;;;;;;12.52;11.20;;;;;;;3.13;80.29;100275.41;4935498;29;20055;-74
2022/11/19 14:57:54;;;;;;;15.55;11.95;;;;;;;3.29;78.71;100276.69;4935523;29;20079;-75
2022/11/19 15:01:13;;;;;;;15.93;11.77;;;;;;;3.32;79.23;100275.75;4935698;29;20102;-77
2022/11/19 15:04:20;;;;;;;14.05;11.18;;;;;;;3.12;79.17;100274.53;4935663;29;20077;-77
2022/11/19 15:07:32;;;;;;;13.10;11.05;;;;;;;3.17;80.52;100277.88;4935597;29;20410;-76
2022/11/19 15:11:27;;;;;;;13.45;10.82;;;;;;;3.30;79.88;100275.81;4934983;29;20527;-75
2022/11/19 15:14:34;;;;;;;14.95;12.93;;;;;;;3.35;80.02;100279.13;4935987;29;20146;-77
2022/11/19 15:17:39;;;;;;;14.70;11.60;;;;;;;3.37;78.81;100285.09;4934177;29;20146;-78
2022/11/19 15:21:24;;;;;;;13.88;12.02;;;;;;;3.56;78.55;100279.44;4917960;29;20135;-77
2022/11/19 15:24:53;;;;;;;13.88;12.38;;;;;;;3.59;78.62;100274.19;4938969;29;20119;-80
2022/11/19 15:28:31;;;;;;;12.38;10.98;;;;;;;3.48;79.69;100282.22;4947179;29;20094;-82
2022/11/19 15:31:59;;;;;;;12.93;11.32;;;;;;;3.42;79.97;100290.16;4942641;29;20058;-82
2022/11/19 15:35:32;;;;;;;14.32;12.32;;;;;;;3.32;81.00;100289.53;4945935;29;20050;-80
2022/11/19 15:38:54;;;;;;;13.23;11.52;;;;;;;3.36;80.24;100298.91;4934147;29;20086;-80
2022/11/19 15:42:04;;;;;;;12.55;11.10;;;;;;;3.41;80.18;100297.03;4947535;29;20524;-80
2022/11/19 15:45:20;;;;;;;15.63;12.10;;;;;;;3.33;80.71;100299.00;4946342;29;20102;-79